Nathaniel B. Palmer — WBP3210 — position and weather

sailwx.info

Track history (hours):
 
Tides and Currents Weather Stations Pressure Air Temp Water Temp Dewpoint Dewpoint Depression Visibility Wind Speed Wind Dir Waves Ship Positions

Oceanographic research ship Nathaniel B. Palmer (USA)

Contact: Ethan Norris, ethan.norris.contractor@usap.gov

Detailed information on ship capabilities available from University of Delaware's Ocean Information Center and ARCUS's ALIAS (Arctic Logistics Information and Support) project.

Owner: OFFSHORE SERVICE VESSELS, GALLIANO, LA. More information available from US FCC via Universal Licensing System and Coast Guard Vessel Documentation Center.

Last reported at 2017-Jun-25 04:00 UTC. Time now 2017-Jun-25 05:20 UTC.
Position S 34°36' E 153°54'.

Type: Other ship. MMSI: 366610000.

Wind from 300 at 20 knots

Barometer 1014.2 mb
Air temperature 16.9 ° C
Water temperature 8.2 ° C

Date/timePositionNaut miles runAvg speedWind from/ knotsBaromVisibWave heightAir tempDewpointWater temp
2017-Jun-25 04:00S 34°36' E 153°54'5 4.9 300 / 201014.2 16.9 8.2
2017-Jun-25 03:00S 34°36' E 154°00'1211.6 290 / 161014.9 17.1 8.2
2017-Jun-25 02:00S 34°42' E 154°12'10 9.9 310 / 121015.6 16.9 8.2
2017-Jun-25 01:00S 34°42' E 154°24'1211.5 330 / 101016.7 16.5 8.2
2017-Jun-25 00:00S 34°48' E 154°36'10 9.9 320 / 71017.1 16.5 8.2
2017-Jun-24 23:00S 34°48' E 154°48'1211.5 030 / 51017.1 16.3 8.2
2017-Jun-24 22:00S 34°54' E 155°00'8 7.8 090 / 21017.1 15.5 8.2
2017-Jun-24 21:00S 35°00' E 155°06'10 9.8 180 / 31016.9 14.8 8.2
2017-Jun-24 20:00S 35°00' E 155°18'1211.5 210 / 91016.4 14.7 8.2
2017-Jun-24 19:00S 35°06' E 155°30'10 9.8 210 / 151015.9 14.7 8.2
2017-Jun-24 18:00S 35°06' E 155°42'8 7.8 220 / 181015.9 14.7 8.2
2017-Jun-24 17:00S 35°12' E 155°48'10 9.8 230 / 171016.0 14.4 8.2
2017-Jun-24 16:00S 35°12' E 156°00'1111.5 220 / 161015.9 14.3 8.2
2017-Jun-24 15:00S 35°18' E 156°12'10 9.8 210 / 171015.6 14.1 8.2
2017-Jun-24 14:00S 35°18' E 156°24'8 7.7 220 / 181015.5 14.5 8.2
2017-Jun-24 13:00S 35°24' E 156°30'10 9.8 220 / 201015.3 14.7 8.2
2017-Jun-24 12:00S 35°24' E 156°42'1111.5 220 / 201015.0 14.6 8.2
2017-Jun-24 11:00S 35°30' E 156°54'5 4.9 210 / 231014.3 14.9 8.2
2017-Jun-24 10:00S 35°30' E 157°00'1111.5 210 / 231013.5 15.5 8.2
2017-Jun-24 09:00S 35°36' E 157°12'10 9.8 210 / 251012.9 15.4 8.2
2017-Jun-24 08:00S 35°36' E 157°24'1111.4 220 / 291012.0 15.4 8.2
2017-Jun-24 07:00S 35°42' E 157°36'10 9.7 220 / 331010.8 16.0 8.2
2017-Jun-24 06:00S 35°42' E 157°48'1111.4 220 / 361009.8 16.4 8.2
2017-Jun-24 05:00S 35°48' E 158°00'5 4.9 210 / 281008.9 16.6 8.2
2017-Jun-24 04:00S 35°48' E 158°06'1111.4 220 / 311008.4 15.5 8.2
2017-Jun-24 03:00S 35°54' E 158°18'1111.4 240 / 291008.1 16.0 8.2
2017-Jun-24 02:00S 36°00' E 158°30'10 9.7 250 / 251008.2 17.7 8.2
2017-Jun-24 01:00S 36°00' E 158°42'1111.4 250 / 251008.6 17.7 8.2
2017-Jun-24 00:00S 36°06' E 158°54'5 4.8 250 / 231008.8 17.8 8.2
2017-Jun-23 23:00S 36°06' E 159°00'1111.4 240 / 231008.5 17.7 8.2
2017-Jun-23 22:00S 36°12' E 159°12'10 9.7 240 / 261007.8 17.4 8.2
2017-Jun-23 21:00S 36°12' E 159°24'1111.4 280 / 241007.4 17.1 8.2
2017-Jun-23 20:00S 36°18' E 159°36'10 9.7 270 / 231007.0 17.5 8.2
2017-Jun-23 19:00S 36°18' E 159°48'1111.4 290 / 241007.3 15.8 8.2
2017-Jun-23 18:00S 36°24' E 160°00'1111.4 310 / 181007.7 16.4 8.2
2017-Jun-23 17:00S 36°30' E 160°12'10 9.6 320 / 191008.3 16.4 8.2
2017-Jun-23 16:00S 36°30' E 160°24'1111.4 300 / 161009.4 16.5 8.2
2017-Jun-23 15:00S 36°36' E 160°36'10 9.6 290 / 181010.1 16.2 8.2
2017-Jun-23 14:00S 36°36' E 160°48'1111.3 330 / 131011.1 14.4 8.2
2017-Jun-23 13:00S 36°42' E 161°00'10 9.6 310 / 111011.9 14.6 8.2
2017-Jun-23 12:00S 36°42' E 161°12'1111.3 280 / 121012.3 14.3 8.2
2017-Jun-23 11:00S 36°48' E 161°24'8 7.7 270 / 101012.7 13.9 8.2
2017-Jun-23 10:00S 36°54' E 161°30'10 9.6 240 / 121013.0 13.6 8.2
2017-Jun-23 09:00S 36°54' E 161°42'1111.3 220 / 141013.3 13.2 8.2
2017-Jun-23 08:00S 37°00' E 161°54'10 9.6 220 / 161013.5 13.0 8.2
2017-Jun-23 07:00S 37°00' E 162°06'1111.3 220 / 191013.6 12.7 8.2
2017-Jun-23 06:00S 37°06' E 162°18'10 9.6 220 / 191013.8 12.5 8.2
2017-Jun-23 05:00S 37°06' E 162°30'1111.3 210 / 211013.6 12.6 8.2
2017-Jun-23 04:00S 37°12' E 162°42'10 9.6 210 / 211013.8 12.2 8.2
2017-Jun-23 03:00S 37°12' E 162°54'1111.3 210 / 221014.0 12.1 8.2
2017-Jun-23 02:00S 37°18' E 163°06'1111.3 210 / 231014.3 12.7 8.2
2017-Jun-23 01:00S 37°24' E 163°18'5 4.8 210 / 251015.0 12.5 8.2
2017-Jun-23 00:00S 37°24' E 163°24'1111.3 210 / 241015.5 12.0 8.2
2017-Jun-22 23:00S 37°30' E 163°36'10 9.5 200 / 241015.3 11.7 8.2
2017-Jun-22 22:00S 37°30' E 163°48'1111.2 190 / 231014.9 11.8 8.2
2017-Jun-22 21:00S 37°36' E 164°00'10 9.5 190 / 231014.3 11.9 8.2
2017-Jun-22 20:00S 37°36' E 164°12'1111.2 200 / 251013.9 11.6 8.2
2017-Jun-22 19:00S 37°42' E 164°24'9 9.5 190 / 251013.5 11.8 8.2
2017-Jun-22 18:00S 37°42' E 164°36'1111.2 190 / 261013.5 11.9 8.2
2017-Jun-22 17:00S 37°48' E 164°48'1111.2 200 / 261013.8 12.4 8.2
2017-Jun-22 16:00S 37°54' E 165°00'9 9.5 190 / 251013.8 12.7 8.2
2017-Jun-22 15:00S 37°54' E 165°12'8 7.6 190 / 251013.6 13.1 8.2
2017-Jun-22 14:00S 38°00' E 165°18'9 9.5 190 / 241013.5 13.2 8.2
2017-Jun-22 13:00S 38°00' E 165°30'1111.2 190 / 241013.6 13.3 8.2
2017-Jun-22 12:00S 38°06' E 165°42'9 9.4 180 / 211013.6 12.9 8.2
2017-Jun-22 11:00S 38°06' E 165°54'1111.2 170 / 211013.3 12.9 8.2
2017-Jun-22 10:00S 38°12' E 166°06'9 9.4 160 / 221013.2 13.3 8.2
2017-Jun-22 09:00S 38°12' E 166°18'1111.2 160 / 241012.9 13.3 8.2
2017-Jun-22 08:00S 38°18' E 166°30'1111.2 160 / 261012.3 13.4 8.2
2017-Jun-22 07:00S 38°24' E 166°42'9 9.4 170 / 241012.0 13.6 8.2
2017-Jun-22 06:00S 38°24' E 166°54'1111.1 170 / 231011.5 14.6 8.2
2017-Jun-22 05:00S 38°30' E 167°06'9 9.4 160 / 201011.4 15.2 8.2
2017-Jun-22 04:00S 38°30' E 167°18'1111.1 150 / 211011.2 15.3 8.2
2017-Jun-22 03:00S 38°36' E 167°30'9 9.4 140 / 221011.7 16.8 8.2
2017-Jun-22 02:00S 38°36' E 167°42'1111.1 140 / 221012.3 17.3 8.2
2017-Jun-22 01:00S 38°42' E 167°54'9 9.4 130 / 221013.1 16.4 8.2
2017-Jun-22 00:00S 38°42' E 168°06'1111.1 130 / 241013.7 16.8 8.2
2017-Jun-21 23:00S 38°48' E 168°18'1111.1 130 / 241014.0 17.2 8.2
2017-Jun-21 22:00S 38°54' E 168°30'9 9.3 120 / 221014.0 15.4 8.2
2017-Jun-21 21:00S 38°54' E 168°42'1111.1 120 / 221014.1 15.2 8.2
2017-Jun-21 20:00S 39°00' E 168°54'9 9.3 120 / 191014.4 16.0 8.2
2017-Jun-21 19:00S 39°00' E 169°06'1111.1 110 / 191014.4 15.2 8.2
2017-Jun-21 18:00S 39°06' E 169°18'1111.1 100 / 171015.0 15.3 8.2
2017-Jun-21 17:00S 39°12' E 169°30'9 9.3 100 / 141015.6 15.3 8.2
2017-Jun-21 16:00S 39°12' E 169°42'1111.1 090 / 161016.3 15.3 8.2
2017-Jun-21 15:00S 39°18' E 169°54'9 9.3 080 / 161017.0 15.3 8.2
2017-Jun-21 14:00S 39°18' E 170°06'1111.1 070 / 181017.5 15.4 8.2
2017-Jun-21 13:00S 39°24' E 170°18'9 9.3 060 / 201018.4 15.4 8.2
2017-Jun-21 12:00S 39°24' E 170°30'1111.0 060 / 201019.2 15.6 8.2
2017-Jun-21 11:00S 39°30' E 170°42'9 9.3 060 / 211019.8 15.5 8.2
2017-Jun-21 10:00S 39°30' E 170°54'1111.0 060 / 211020.5 15.3 8.2
2017-Jun-21 09:00S 39°36' E 171°06'1111.0 050 / 211020.8 15.2 8.2
2017-Jun-21 08:00S 39°42' E 171°18'9 9.2 050 / 211021.0 15.2 8.2
2017-Jun-21 07:00S 39°42' E 171°30'1111.0 040 / 221021.2 15.0 8.2
2017-Jun-21 06:00S 39°48' E 171°42'9 9.2 040 / 221021.5 15.0 8.2
2017-Jun-21 05:00S 39°48' E 171°54'1111.0 030 / 201022.2 14.9 8.2
2017-Jun-21 04:00S 39°54' E 172°06'9 9.2 040 / 181022.8 14.8 8.2
2017-Jun-21 03:00S 39°54' E 172°18'1111.0 050 / 151023.6 14.5 8.2
2017-Jun-21 02:00S 40°00' E 172°30'9 9.2 040 / 141024.6 14.3 8.2
2017-Jun-21 01:00S 40°00' E 172°42'1111.0 040 / 121025.7 14.7 8.2
2017-Jun-21 00:00S 40°06' E 172°54'1111.0 020 / 111026.9 14.9 8.2
2017-Jun-20 23:00S 40°12' E 173°06'9 9.2 350 / 51027.5 15.1 8.2
2017-Jun-20 22:00S 40°12' E 173°18'1110.9 090 / 51027.6 14.4 8.2
2017-Jun-20 21:00S 40°18' E 173°30'9 9.2 100 / 61027.8 13.6 8.2
2017-Jun-20 20:00S 40°18' E 173°42'1110.9 120 / 41028.1 12.8 8.2
2017-Jun-20 19:00S 40°24' E 173°54'1110.9 170 / 31027.9 13.0 8.2
2017-Jun-20 18:00S 40°30' E 174°06'8 7.5 350 / 71027.8 13.5 8.2
2017-Jun-20 17:00S 40°36' E 174°12'1312.8 300 / 31028.2 12.8 8.2
2017-Jun-20 16:00S 40°48' E 174°18'8 7.5 310 / 51028.5 12.8 8.2
2017-Jun-20 15:00S 40°54' E 174°24'1312.8 340 / 91028.7 13.2 8.2
2017-Jun-20 14:00S 41°06' E 174°30'1212.0
2017-Jun-20 13:00S 41°18' E 174°30'6 6.0 360 / 201028.2 13.0 8.2
2017-Jun-20 12:00S 41°24' E 174°30'6 6.0 360 / 221028.2 13.3 8.2
2017-Jun-20 11:00S 41°30' E 174°30'1312.8 350 / 211027.9 12.9 8.2
2017-Jun-20 10:00S 41°42' E 174°24'7 7.5 360 / 181027.9 12.3 8.2
2017-Jun-20 09:00S 41°48' E 174°18'1312.8 010 / 181027.7 12.1 8.2
2017-Jun-20 08:00S 42°00' E 174°12'7 7.5 010 / 121027.6 11.7 8.2
2017-Jun-20 07:00S 42°06' E 174°06'1312.8 030 / 41027.5 11.1 8.2
2017-Jun-20 06:00S 42°18' E 174°00'7 7.5 160 / 21027.2 10.3 8.2
2017-Jun-20 05:00S 42°24' E 173°54'1514.9 330 / 41026.9 10.6 8.2
2017-Jun-20 04:00S 42°36' E 173°42'7 7.4 050 / 31026.9 11.7 8.2
2017-Jun-20 03:00S 42°42' E 173°36'1312.8 070 / 31026.9 11.2 8.2
2017-Jun-20 02:00S 42°54' E 173°30'7 7.4 170 / 21027.2 10.5 8.2
2017-Jun-20 01:00S 43°00' E 173°24'1514.9 290 / 31027.5 9.9 8.2
2017-Jun-20 00:00S 43°12' E 173°12'7 7.4 350 / 81028.2 10.1 8.2
2017-Jun-19 23:00S 43°18' E 173°06'7 7.4 360 / 71028.6 9.9 8.2
2017-Jun-19 22:00S 43°24' E 173°00'1110.6 050 / 51028.5 10.0 8.2
2017-Jun-19 21:00S 43°30' E 172°48'7 7.4 100 / 81028.3 9.7 8.2
2017-Jun-19 20:00S 43°36' E 172°42'0 0.0 070 / 91027.9 9.7 8.2
2017-Jun-19 19:00S 43°36' E 172°42'0 0.0 070 / 71027.7 9.7 8.2
2017-Jun-19 18:00S 43°36' E 172°42'0 0.0 070 / 81027.5 9.8 8.2
2017-Jun-19 17:00S 43°36' E 172°42'0 0.0 070 / 71027.7 9.8 8.2
2017-Jun-19 16:00S 43°36' E 172°42'0 0.0 080 / 61027.9 9.6 8.2
2017-Jun-19 15:00S 43°36' E 172°42'0 0.0 060 / 81028.5 9.7 8.2
2017-Jun-19 14:00S 43°36' E 172°42'0 0.0 060 / 81028.7 9.6 8.2
2017-Jun-19 13:00S 43°36' E 172°42'0 0.0 060 / 91029.1 9.6 8.2
2017-Jun-19 12:00S 43°36' E 172°42'0 0.0 060 / 101029.4 9.3 8.2
2017-Jun-19 11:00S 43°36' E 172°42'0 0.0 060 / 81029.7 9.3 8.2
2017-Jun-19 10:00S 43°36' E 172°42'0 0.0 060 / 71029.8 9.2 8.2
2017-Jun-19 09:00S 43°36' E 172°42'0 0.0 060 / 21030.0 8.4 8.2
2017-Jun-19 08:00S 43°36' E 172°42'0 0.0 060 / 31030.0 8.3 8.2
2017-Jun-19 07:00S 43°36' E 172°42'0 0.0 040 / 21029.8 9.3 8.2
2017-Jun-19 06:00S 43°36' E 172°42'0 0.0 050 / 21029.6 10.3 8.2
2017-Jun-19 05:00S 43°36' E 172°42'0 0.0 080 / 31029.4 10.9 8.2
2017-Jun-19 04:00S 43°36' E 172°42'0 0.0 200 / 11029.5 11.4 8.2
2017-Jun-19 03:00S 43°36' E 172°42'0 0.0 260 / 31029.3 11.3 8.2
2017-Jun-19 02:00S 43°36' E 172°42'0 0.0 270 / 51029.3 11.1 8.2
2017-Jun-19 01:00S 43°36' E 172°42'0 0.0 250 / 71029.5 10.8 8.2
2017-Jun-19 00:00S 43°36' E 172°42'0 0.0 250 / 81029.7 10.4 8.2
2017-Jun-18 23:00S 43°36' E 172°42'0 0.0 240 / 91029.6 10.3 8.2
2017-Jun-18 22:00S 43°36' E 172°42'0 0.0 230 / 111028.3 10.5 8.2
2017-Jun-18 21:00S 43°36' E 172°42'0 0.0 230 / 171026.0 10.4 8.2
2017-Jun-18 20:00S 43°36' E 172°42'0 0.0 230 / 161024.4 10.9 8.2
2017-Jun-18 19:00S 43°36' E 172°42'0 0.0 260 / 71022.2 13.7 8.2
2017-Jun-18 18:00S 43°36' E 172°42'0 0.0 260 / 21020.7 11.7 8.2
2017-Jun-18 17:00S 43°36' E 172°42'0 0.0 270 / 21020.4 10.0 8.2
2017-Jun-18 16:00S 43°36' E 172°42'0 0.0 070 / 11020.7 10.3 8.2
2017-Jun-18 15:00S 43°36' E 172°42'0 0.0 090 / 21020.7 9.7 8.2
2017-Jun-18 14:00S 43°36' E 172°42'0 0.0 080 / 21020.8 7.9 8.2
2017-Jun-18 13:00S 43°36' E 172°42'0 0.0 100 / 11021.1 7.2 8.2
2017-Jun-18 12:00S 43°36' E 172°42'0 0.0 220 / 11021.5 7.2 8.2
2017-Jun-18 11:00S 43°36' E 172°42'0 0.0 190 / 11021.8 7.4 8.2
2017-Jun-18 10:00S 43°36' E 172°42'0 0.0 160 1022.2 7.5 8.2
2017-Jun-18 09:00S 43°36' E 172°42'0 0.0 190 / 11022.6 7.8 8.2
2017-Jun-18 08:00S 43°36' E 172°42'0 0.0 090 / 11022.9 8.1 8.2
2017-Jun-18 07:00S 43°36' E 172°42'0 0.0 110 1022.8 8.7 8.2
2017-Jun-18 06:00S 43°36' E 172°42'0 0.0 120 / 21023.5 9.6 8.2
2017-Jun-18 05:00S 43°36' E 172°42'0 0.0 090 / 31026.4 10.4 8.2
2017-Jun-18 04:00S 43°36' E 172°42'0 0.0 090 / 31026.4 10.4 8.2
2017-Jun-18 03:00S 43°36' E 172°42'0 0.0 090 / 31026.4 10.4 8.2
2017-Jun-18 02:00S 43°36' E 172°42'0 0.0 090 / 31026.4 10.4 8.2
2017-Jun-18 01:00S 43°36' E 172°42'0 0.0 090 / 31026.4 10.4 8.2
2017-Jun-18 00:00S 43°36' E 172°42'0 0.0 090 / 31026.4 10.4 8.2
2017-Jun-17 23:00S 43°36' E 172°42'0 0.0 080 / 61026.6 10.2 8.2
2017-Jun-17 22:00S 43°36' E 172°42'0 0.0 080 / 71026.8 10.1 8.2
2017-Jun-17 21:00S 43°36' E 172°42'0 0.0 080 / 81027.0 10.1 8.2
2017-Jun-17 20:00S 43°36' E 172°42'0 0.0 080 / 71027.2 9.9 8.2
2017-Jun-17 19:00S 43°36' E 172°42'0 0.0 070 / 91027.3 9.8 8.2
2017-Jun-17 18:00S 43°36' E 172°42'0 0.0 070 / 81027.4 9.8 8.2
2017-Jun-17 17:00S 43°36' E 172°42'0 0.0 080 / 91027.8 10.0 8.2
2017-Jun-17 16:00S 43°36' E 172°42'0 0.0 070 / 81028.3 9.9 8.2
2017-Jun-17 15:00S 43°36' E 172°42'0 0.0 080 / 71028.8 10.0 8.2
2017-Jun-17 14:00S 43°36' E 172°42'0 0.0 080 / 61029.1 9.4 8.2
2017-Jun-17 13:00S 43°36' E 172°42'0 0.0 080 / 61029.4 8.9 8.2
2017-Jun-17 12:00S 43°36' E 172°42'0 0.0 050 / 21029.6 7.6 8.2
2017-Jun-17 11:00S 43°36' E 172°42'0 0.0 240 1029.8 6.7 8.2
2017-Jun-17 10:00S 43°36' E 172°42'0 0.0 300 1030.0 6.7 8.2
2017-Jun-17 09:00S 43°36' E 172°42'0 0.0 310 / 11030.0 6.9 8.2
2017-Jun-17 08:00S 43°36' E 172°42'0 0.0 090 / 11029.8 6.7 8.2
2017-Jun-17 07:00S 43°36' E 172°42'0 0.0 200 1029.4 6.9 8.2
2017-Jun-17 06:00S 43°36' E 172°42'0 0.0 310 / 11028.9 7.6 8.2
2017-Jun-17 05:00S 43°36' E 172°42'0 0.0 290 / 11028.6 8.5 8.2
2017-Jun-17 04:00S 43°36' E 172°42'0 0.0 320 1028.5 9.7 8.2
2017-Jun-17 03:00S 43°36' E 172°42'0 0.0 230 1028.4 9.9 8.2
2017-Jun-17 02:00S 43°36' E 172°42'0 0.0 190 1028.6 9.0 8.2
2017-Jun-17 01:00S 43°36' E 172°42'0 0.0 120 1029.1 7.9 8.2
2017-Jun-17 00:00S 43°36' E 172°42'0 0.0 130 1029.5 7.3 8.2
2017-Jun-16 23:00S 43°36' E 172°42'0 0.0 090 1029.8 1.0 6.6 8.2
2017-Jun-16 22:00S 43°36' E 172°42'0 0.0 070 1029.5 5.2 8.2
2017-Jun-16 21:00S 43°36' E 172°42'0 0.0 350 1029.2 4.4 8.2
2017-Jun-16 20:00S 43°36' E 172°42'0 0.0 070 1028.7 4.5 8.2
2017-Jun-16 19:00S 43°36' E 172°42'0 0.0 030 1028.3 4.5 8.2
2017-Jun-16 18:00S 43°36' E 172°42'0 0.0 310 1027.9 4.6 8.2
2017-Jun-16 17:00S 43°36' E 172°42'0 0.0 040 1027.7 4.7 8.2
2017-Jun-16 16:00S 43°36' E 172°42'0 0.0 080 / 11027.6 5.0 8.2
2017-Jun-16 15:00S 43°36' E 172°42'0 0.0 110 1027.6 5.1 8.2
2017-Jun-16 14:00S 43°36' E 172°42'0 0.0 100 1027.3 5.4 8.2
2017-Jun-16 13:00S 43°36' E 172°42'0 0.0 050 / 11027.3 5.4 8.2
2017-Jun-16 12:00S 43°36' E 172°42'0 0.0 280 1027.1 5.7 8.2
2017-Jun-16 11:00S 43°36' E 172°42'0 0.0 280 1026.9 5.9 8.2
2017-Jun-16 10:00S 43°36' E 172°42'0 0.0 180 1026.6 6.5 8.2
2017-Jun-16 09:00S 43°36' E 172°42'0 0.0 300 / 11026.3 6.9 8.2
2017-Jun-16 08:00S 43°36' E 172°42'0 0.0 020 1026.1 7.8 8.2
2017-Jun-16 07:00S 43°36' E 172°42'0 0.0 300 1025.6 8.0 8.2
2017-Jun-16 06:00S 43°36' E 172°42'0 0.0 330 / 11025.0 7.9 8.2
2017-Jun-16 05:00S 43°36' E 172°42'0 0.0 020 / 11024.1 8.7 8.2
2017-Jun-16 04:00S 43°36' E 172°42'0 0.0 1023.5 9.7 8.2
2017-Jun-16 03:00S 43°36' E 172°42'0 0.0 060 / 41023.0 10.5 8.2
2017-Jun-16 02:00S 43°36' E 172°42'0 0.0 120 / 11023.0 9.7 8.2
2017-Jun-16 01:00S 43°36' E 172°42'0 0.0 130 / 21023.4 9.3 8.2
2017-Jun-16 00:00S 43°36' E 172°42'0 0.0 170 / 11024.0 9.0 8.2
2017-Jun-15 23:00S 43°36' E 172°42'0 0.0 140 / 11024.1 8.5 8.2
2017-Jun-15 22:00S 43°36' E 172°42'0 0.0 120 1023.8 8.2 8.2
2017-Jun-15 21:00S 43°36' E 172°42'0 0.0 200 1023.1 8.1 8.2
2017-Jun-15 20:00S 43°36' E 172°42'0 0.0 050 1022.7 8.4 8.2
2017-Jun-15 19:00S 43°36' E 172°42'0 0.0 010 / 11022.4 8.4 8.2
2017-Jun-15 18:00S 43°36' E 172°42'0 0.0 300 / 31022.1 8.6 8.2
2017-Jun-15 17:00S 43°36' E 172°42'0 0.0 270 / 71021.9 8.5 8.2
2017-Jun-15 16:00S 43°36' E 172°42'0 0.0 260 / 51021.9 9.1 8.2
2017-Jun-15 15:00S 43°36' E 172°42'0 0.0 250 / 81021.6 10.1 8.2
2017-Jun-15 14:00S 43°36' E 172°42'0 0.0 260 / 51020.9 9.9 8.2
2017-Jun-15 13:00S 43°36' E 172°42'0 0.0 250 / 81020.2 10.4 8.2
2017-Jun-15 12:00S 43°36' E 172°42'0 0.0 250 / 141018.5 10.8 8.2
2017-Jun-15 11:00S 43°36' E 172°42'0 0.0 260 / 141016.9 9.8 8.2
2017-Jun-15 10:00S 43°36' E 172°42'0 0.0 300 / 41015.7 6.6 8.2
2017-Jun-15 09:00S 43°36' E 172°42'0 0.0 100 / 21014.8 6.2 8.2
2017-Jun-15 08:00S 43°36' E 172°42'0 0.0 320 / 21014.5 6.1 8.2
2017-Jun-15 07:00S 43°36' E 172°42'0 0.0 320 / 11014.1 6.2 8.2
2017-Jun-15 06:00S 43°36' E 172°42'0 0.0 090 / 11013.9 7.0 8.2
2017-Jun-15 05:00S 43°36' E 172°42'0 0.0 350 / 11013.9 8.1 8.2
2017-Jun-15 04:00S 43°36' E 172°42'   090 / 41014.0 9.1 8.2
Track history (hours):
 
Tides and Currents Weather Stations Pressure Air Temp Water Temp Dewpoint Dewpoint Depression Visibility Wind Speed Wind Dir Waves Ship Positions

Oceanographic research ship Nathaniel B. Palmer (USA)

Contact: Ethan Norris, ethan.norris.contractor@usap.gov

Detailed information on ship capabilities available from University of Delaware's Ocean Information Center and ARCUS's ALIAS (Arctic Logistics Information and Support) project.

Owner: OFFSHORE SERVICE VESSELS, GALLIANO, LA. More information available from US FCC via Universal Licensing System and Coast Guard Vessel Documentation Center.

Last reported at 2017-Jun-25 04:00 UTC. Time now 2017-Jun-25 05:20 UTC.
Position S 34°36' E 153°54'.

Type: Other ship. MMSI: 366610000.

Wind from 300 at 20 knots

Barometer 1014.2 mb
Air temperature 16.9 ° C
Water temperature 8.2 ° C

Date/timePositionNaut miles runAvg speedWind from/ knotsBaromVisibWave heightAir tempDewpointWater temp
2017-Jun-25 04:00S 34°36' E 153°54'5 4.9 300 / 201014.2 16.9 8.2
2017-Jun-25 03:00S 34°36' E 154°00'1211.6 290 / 161014.9 17.1 8.2
2017-Jun-25 02:00S 34°42' E 154°12'10 9.9 310 / 121015.6 16.9 8.2
2017-Jun-25 01:00S 34°42' E 154°24'1211.5 330 / 101016.7 16.5 8.2
2017-Jun-25 00:00S 34°48' E 154°36'10 9.9 320 / 71017.1 16.5 8.2
2017-Jun-24 23:00S 34°48' E 154°48'1211.5 030 / 51017.1 16.3 8.2
2017-Jun-24 22:00S 34°54' E 155°00'8 7.8 090 / 21017.1 15.5 8.2
2017-Jun-24 21:00S 35°00' E 155°06'10 9.8 180 / 31016.9 14.8 8.2
2017-Jun-24 20:00S 35°00' E 155°18'1211.5 210 / 91016.4 14.7 8.2
2017-Jun-24 19:00S 35°06' E 155°30'10 9.8 210 / 151015.9 14.7 8.2
2017-Jun-24 18:00S 35°06' E 155°42'8 7.8 220 / 181015.9 14.7 8.2
2017-Jun-24 17:00S 35°12' E 155°48'10 9.8 230 / 171016.0 14.4 8.2
2017-Jun-24 16:00S 35°12' E 156°00'1111.5 220 / 161015.9 14.3 8.2
2017-Jun-24 15:00S 35°18' E 156°12'10 9.8 210 / 171015.6 14.1 8.2
2017-Jun-24 14:00S 35°18' E 156°24'8 7.7 220 / 181015.5 14.5 8.2
2017-Jun-24 13:00S 35°24' E 156°30'10 9.8 220 / 201015.3 14.7 8.2
2017-Jun-24 12:00S 35°24' E 156°42'1111.5 220 / 201015.0 14.6 8.2
2017-Jun-24 11:00S 35°30' E 156°54'5 4.9 210 / 231014.3 14.9 8.2
2017-Jun-24 10:00S 35°30' E 157°00'1111.5 210 / 231013.5 15.5 8.2
2017-Jun-24 09:00S 35°36' E 157°12'10 9.8 210 / 251012.9 15.4 8.2
2017-Jun-24 08:00S 35°36' E 157°24'1111.4 220 / 291012.0 15.4 8.2
2017-Jun-24 07:00S 35°42' E 157°36'10 9.7 220 / 331010.8 16.0 8.2
2017-Jun-24 06:00S 35°42' E 157°48'1111.4 220 / 361009.8 16.4 8.2
2017-Jun-24 05:00S 35°48' E 158°00'5 4.9 210 / 281008.9 16.6 8.2
2017-Jun-24 04:00S 35°48' E 158°06'1111.4 220 / 311008.4 15.5 8.2
2017-Jun-24 03:00S 35°54' E 158°18'1111.4 240 / 291008.1 16.0 8.2
2017-Jun-24 02:00S 36°00' E 158°30'10 9.7 250 / 251008.2 17.7 8.2
2017-Jun-24 01:00S 36°00' E 158°42'1111.4 250 / 251008.6 17.7 8.2
2017-Jun-24 00:00S 36°06' E 158°54'5 4.8 250 / 231008.8 17.8 8.2
2017-Jun-23 23:00S 36°06' E 159°00'1111.4 240 / 231008.5 17.7 8.2
2017-Jun-23 22:00S 36°12' E 159°12'10 9.7 240 / 261007.8 17.4 8.2
2017-Jun-23 21:00S 36°12' E 159°24'1111.4 280 / 241007.4 17.1 8.2
2017-Jun-23 20:00S 36°18' E 159°36'10 9.7 270 / 231007.0 17.5 8.2
2017-Jun-23 19:00S 36°18' E 159°48'1111.4 290 / 241007.3 15.8 8.2
2017-Jun-23 18:00S 36°24' E 160°00'1111.4 310 / 181007.7 16.4 8.2
2017-Jun-23 17:00S 36°30' E 160°12'10 9.6 320 / 191008.3 16.4 8.2
2017-Jun-23 16:00S 36°30' E 160°24'1111.4 300 / 161009.4 16.5 8.2
2017-Jun-23 15:00S 36°36' E 160°36'10 9.6 290 / 181010.1 16.2 8.2
2017-Jun-23 14:00S 36°36' E 160°48'1111.3 330 / 131011.1 14.4 8.2
2017-Jun-23 13:00S 36°42' E 161°00'10 9.6 310 / 111011.9 14.6 8.2
2017-Jun-23 12:00S 36°42' E 161°12'1111.3 280 / 121012.3 14.3 8.2
2017-Jun-23 11:00S 36°48' E 161°24'8 7.7 270 / 101012.7 13.9 8.2
2017-Jun-23 10:00S 36°54' E 161°30'10 9.6 240 / 121013.0 13.6 8.2
2017-Jun-23 09:00S 36°54' E 161°42'1111.3 220 / 141013.3 13.2 8.2
2017-Jun-23 08:00S 37°00' E 161°54'10 9.6 220 / 161013.5 13.0 8.2
2017-Jun-23 07:00S 37°00' E 162°06'1111.3 220 / 191013.6 12.7 8.2
2017-Jun-23 06:00S 37°06' E 162°18'10 9.6 220 / 191013.8 12.5 8.2
2017-Jun-23 05:00S 37°06' E 162°30'1111.3 210 / 211013.6 12.6 8.2
2017-Jun-23 04:00S 37°12' E 162°42'10 9.6 210 / 211013.8 12.2 8.2
2017-Jun-23 03:00S 37°12' E 162°54'1111.3 210 / 221014.0 12.1 8.2
2017-Jun-23 02:00S 37°18' E 163°06'1111.3 210 / 231014.3 12.7 8.2
2017-Jun-23 01:00S 37°24' E 163°18'5 4.8 210 / 251015.0 12.5 8.2
2017-Jun-23 00:00S 37°24' E 163°24'1111.3 210 / 241015.5 12.0 8.2
2017-Jun-22 23:00S 37°30' E 163°36'10 9.5 200 / 241015.3 11.7 8.2
2017-Jun-22 22:00S 37°30' E 163°48'1111.2 190 / 231014.9 11.8 8.2
2017-Jun-22 21:00S 37°36' E 164°00'10 9.5 190 / 231014.3 11.9 8.2
2017-Jun-22 20:00S 37°36' E 164°12'1111.2 200 / 251013.9 11.6 8.2
2017-Jun-22 19:00S 37°42' E 164°24'9 9.5 190 / 251013.5 11.8 8.2
2017-Jun-22 18:00S 37°42' E 164°36'1111.2 190 / 261013.5 11.9 8.2
2017-Jun-22 17:00S 37°48' E 164°48'1111.2 200 / 261013.8 12.4 8.2
2017-Jun-22 16:00S 37°54' E 165°00'9 9.5 190 / 251013.8 12.7 8.2
2017-Jun-22 15:00S 37°54' E 165°12'8 7.6 190 / 251013.6 13.1 8.2
2017-Jun-22 14:00S 38°00' E 165°18'9 9.5 190 / 241013.5 13.2 8.2
2017-Jun-22 13:00S 38°00' E 165°30'1111.2 190 / 241013.6 13.3 8.2
2017-Jun-22 12:00S 38°06' E 165°42'9 9.4 180 / 211013.6 12.9 8.2
2017-Jun-22 11:00S 38°06' E 165°54'1111.2 170 / 211013.3 12.9 8.2
2017-Jun-22 10:00S 38°12' E 166°06'9 9.4 160 / 221013.2 13.3 8.2
2017-Jun-22 09:00S 38°12' E 166°18'1111.2 160 / 241012.9 13.3 8.2
2017-Jun-22 08:00S 38°18' E 166°30'1111.2 160 / 261012.3 13.4 8.2
2017-Jun-22 07:00S 38°24' E 166°42'9 9.4 170 / 241012.0 13.6 8.2
2017-Jun-22 06:00S 38°24' E 166°54'1111.1 170 / 231011.5 14.6 8.2
2017-Jun-22 05:00S 38°30' E 167°06'9 9.4 160 / 201011.4 15.2 8.2
2017-Jun-22 04:00S 38°30' E 167°18'1111.1 150 / 211011.2 15.3 8.2
2017-Jun-22 03:00S 38°36' E 167°30'9 9.4 140 / 221011.7 16.8 8.2
2017-Jun-22 02:00S 38°36' E 167°42'1111.1 140 / 221012.3 17.3 8.2
2017-Jun-22 01:00S 38°42' E 167°54'9 9.4 130 / 221013.1 16.4 8.2
2017-Jun-22 00:00S 38°42' E 168°06'1111.1 130 / 241013.7 16.8 8.2
2017-Jun-21 23:00S 38°48' E 168°18'1111.1 130 / 241014.0 17.2 8.2
2017-Jun-21 22:00S 38°54' E 168°30'9 9.3 120 / 221014.0 15.4 8.2
2017-Jun-21 21:00S 38°54' E 168°42'1111.1 120 / 221014.1 15.2 8.2
2017-Jun-21 20:00S 39°00' E 168°54'9 9.3 120 / 191014.4 16.0 8.2
2017-Jun-21 19:00S 39°00' E 169°06'1111.1 110 / 191014.4 15.2 8.2
2017-Jun-21 18:00S 39°06' E 169°18'1111.1 100 / 171015.0 15.3 8.2
2017-Jun-21 17:00S 39°12' E 169°30'9 9.3 100 / 141015.6 15.3 8.2
2017-Jun-21 16:00S 39°12' E 169°42'1111.1 090 / 161016.3 15.3 8.2
2017-Jun-21 15:00S 39°18' E 169°54'9 9.3 080 / 161017.0 15.3 8.2
2017-Jun-21 14:00S 39°18' E 170°06'1111.1 070 / 181017.5 15.4 8.2
2017-Jun-21 13:00S 39°24' E 170°18'9 9.3 060 / 201018.4 15.4 8.2
2017-Jun-21 12:00S 39°24' E 170°30'1111.0 060 / 201019.2 15.6 8.2
2017-Jun-21 11:00S 39°30' E 170°42'9 9.3 060 / 211019.8 15.5 8.2
2017-Jun-21 10:00S 39°30' E 170°54'1111.0 060 / 211020.5 15.3 8.2
2017-Jun-21 09:00S 39°36' E 171°06'1111.0 050 / 211020.8 15.2 8.2
2017-Jun-21 08:00S 39°42' E 171°18'9 9.2 050 / 211021.0 15.2 8.2
2017-Jun-21 07:00S 39°42' E 171°30'1111.0 040 / 221021.2 15.0 8.2
2017-Jun-21 06:00S 39°48' E 171°42'9 9.2 040 / 221021.5 15.0 8.2
2017-Jun-21 05:00S 39°48' E 171°54'1111.0 030 / 201022.2 14.9 8.2
2017-Jun-21 04:00S 39°54' E 172°06'9 9.2 040 / 181022.8 14.8 8.2
2017-Jun-21 03:00S 39°54' E 172°18'1111.0 050 / 151023.6 14.5 8.2
2017-Jun-21 02:00S 40°00' E 172°30'9 9.2 040 / 141024.6 14.3 8.2
2017-Jun-21 01:00S 40°00' E 172°42'1111.0 040 / 121025.7 14.7 8.2
2017-Jun-21 00:00S 40°06' E 172°54'1111.0 020 / 111026.9 14.9 8.2
2017-Jun-20 23:00S 40°12' E 173°06'9 9.2 350 / 51027.5 15.1 8.2
2017-Jun-20 22:00S 40°12' E 173°18'1110.9 090 / 51027.6 14.4 8.2
2017-Jun-20 21:00S 40°18' E 173°30'9 9.2 100 / 61027.8 13.6 8.2
2017-Jun-20 20:00S 40°18' E 173°42'1110.9 120 / 41028.1 12.8 8.2
2017-Jun-20 19:00S 40°24' E 173°54'1110.9 170 / 31027.9 13.0 8.2
2017-Jun-20 18:00S 40°30' E 174°06'8 7.5 350 / 71027.8 13.5 8.2
2017-Jun-20 17:00S 40°36' E 174°12'1312.8 300 / 31028.2 12.8 8.2
2017-Jun-20 16:00S 40°48' E 174°18'8 7.5 310 / 51028.5 12.8 8.2
2017-Jun-20 15:00S 40°54' E 174°24'1312.8 340 / 91028.7 13.2 8.2
2017-Jun-20 14:00S 41°06' E 174°30'1212.0
2017-Jun-20 13:00S 41°18' E 174°30'6 6.0 360 / 201028.2 13.0 8.2
2017-Jun-20 12:00S 41°24' E 174°30'6 6.0 360 / 221028.2 13.3 8.2
2017-Jun-20 11:00S 41°30' E 174°30'1312.8 350 / 211027.9 12.9 8.2
2017-Jun-20 10:00S 41°42' E 174°24'7 7.5 360 / 181027.9 12.3 8.2
2017-Jun-20 09:00S 41°48' E 174°18'1312.8 010 / 181027.7 12.1 8.2
2017-Jun-20 08:00S 42°00' E 174°12'7 7.5 010 / 121027.6 11.7 8.2
2017-Jun-20 07:00S 42°06' E 174°06'1312.8 030 / 41027.5 11.1 8.2
2017-Jun-20 06:00S 42°18' E 174°00'7 7.5 160 / 21027.2 10.3 8.2
2017-Jun-20 05:00S 42°24' E 173°54'1514.9 330 / 41026.9 10.6 8.2
2017-Jun-20 04:00S 42°36' E 173°42'7 7.4 050 / 31026.9 11.7 8.2
2017-Jun-20 03:00S 42°42' E 173°36'1312.8 070 / 31026.9 11.2 8.2
2017-Jun-20 02:00S 42°54' E 173°30'7 7.4 170 / 21027.2 10.5 8.2
2017-Jun-20 01:00S 43°00' E 173°24'1514.9 290 / 31027.5 9.9 8.2
2017-Jun-20 00:00S 43°12' E 173°12'7 7.4 350 / 81028.2 10.1 8.2
2017-Jun-19 23:00S 43°18' E 173°06'7 7.4 360 / 71028.6 9.9 8.2
2017-Jun-19 22:00S 43°24' E 173°00'1110.6 050 / 51028.5 10.0 8.2
2017-Jun-19 21:00S 43°30' E 172°48'7 7.4 100 / 81028.3 9.7 8.2
2017-Jun-19 20:00S 43°36' E 172°42'0 0.0 070 / 91027.9 9.7 8.2
2017-Jun-19 19:00S 43°36' E 172°42'0 0.0 070 / 71027.7 9.7 8.2
2017-Jun-19 18:00S 43°36' E 172°42'0 0.0 070 / 81027.5 9.8 8.2
2017-Jun-19 17:00S 43°36' E 172°42'0 0.0 070 / 71027.7 9.8 8.2
2017-Jun-19 16:00S 43°36' E 172°42'0 0.0 080 / 61027.9 9.6 8.2
2017-Jun-19 15:00S 43°36' E 172°42'0 0.0 060 / 81028.5 9.7 8.2
2017-Jun-19 14:00S 43°36' E 172°42'0 0.0 060 / 81028.7 9.6 8.2
2017-Jun-19 13:00S 43°36' E 172°42'0 0.0 060 / 91029.1 9.6 8.2
2017-Jun-19 12:00S 43°36' E 172°42'0 0.0 060 / 101029.4 9.3 8.2
2017-Jun-19 11:00S 43°36' E 172°42'0 0.0 060 / 81029.7 9.3 8.2
2017-Jun-19 10:00S 43°36' E 172°42'0 0.0 060 / 71029.8 9.2 8.2
2017-Jun-19 09:00S 43°36' E 172°42'0 0.0 060 / 21030.0 8.4 8.2
2017-Jun-19 08:00S 43°36' E 172°42'0 0.0 060 / 31030.0 8.3 8.2
2017-Jun-19 07:00S 43°36' E 172°42'0 0.0 040 / 21029.8 9.3 8.2
2017-Jun-19 06:00S 43°36' E 172°42'0 0.0 050 / 21029.6 10.3 8.2
2017-Jun-19 05:00S 43°36' E 172°42'0 0.0 080 / 31029.4 10.9 8.2
2017-Jun-19 04:00S 43°36' E 172°42'0 0.0 200 / 11029.5 11.4 8.2
2017-Jun-19 03:00S 43°36' E 172°42'0 0.0 260 / 31029.3 11.3 8.2
2017-Jun-19 02:00S 43°36' E 172°42'0 0.0 270 / 51029.3 11.1 8.2
2017-Jun-19 01:00S 43°36' E 172°42'0 0.0 250 / 71029.5 10.8 8.2
2017-Jun-19 00:00S 43°36' E 172°42'0 0.0 250 / 81029.7 10.4 8.2
2017-Jun-18 23:00S 43°36' E 172°42'0 0.0 240 / 91029.6 10.3 8.2
2017-Jun-18 22:00S 43°36' E 172°42'0 0.0 230 / 111028.3 10.5 8.2
2017-Jun-18 21:00S 43°36' E 172°42'0 0.0 230 / 171026.0 10.4 8.2
2017-Jun-18 20:00S 43°36' E 172°42'0 0.0 230 / 161024.4 10.9 8.2
2017-Jun-18 19:00S 43°36' E 172°42'0 0.0 260 / 71022.2 13.7 8.2
2017-Jun-18 18:00S 43°36' E 172°42'0 0.0 260 / 21020.7 11.7 8.2
2017-Jun-18 17:00S 43°36' E 172°42'0 0.0 270 / 21020.4 10.0 8.2
2017-Jun-18 16:00S 43°36' E 172°42'0 0.0 070 / 11020.7 10.3 8.2
2017-Jun-18 15:00S 43°36' E 172°42'0 0.0 090 / 21020.7 9.7 8.2
2017-Jun-18 14:00S 43°36' E 172°42'0 0.0 080 / 21020.8 7.9 8.2
2017-Jun-18 13:00S 43°36' E 172°42'0 0.0 100 / 11021.1 7.2 8.2
2017-Jun-18 12:00S 43°36' E 172°42'0 0.0 220 / 11021.5 7.2 8.2
2017-Jun-18 11:00S 43°36' E 172°42'0 0.0 190 / 11021.8 7.4 8.2
2017-Jun-18 10:00S 43°36' E 172°42'0 0.0 160 1022.2 7.5 8.2
2017-Jun-18 09:00S 43°36' E 172°42'0 0.0 190 / 11022.6 7.8 8.2
2017-Jun-18 08:00S 43°36' E 172°42'0 0.0 090 / 11022.9 8.1 8.2
2017-Jun-18 07:00S 43°36' E 172°42'0 0.0 110 1022.8 8.7 8.2
2017-Jun-18 06:00S 43°36' E 172°42'0 0.0 120 / 21023.5 9.6 8.2
2017-Jun-18 05:00S 43°36' E 172°42'0 0.0 090 / 31026.4 10.4 8.2
2017-Jun-18 04:00S 43°36' E 172°42'0 0.0 090 / 31026.4 10.4 8.2
2017-Jun-18 03:00S 43°36' E 172°42'0 0.0 090 / 31026.4 10.4 8.2
2017-Jun-18 02:00S 43°36' E 172°42'0 0.0 090 / 31026.4 10.4 8.2
2017-Jun-18 01:00S 43°36' E 172°42'0 0.0 090 / 31026.4 10.4 8.2
2017-Jun-18 00:00S 43°36' E 172°42'0 0.0 090 / 31026.4 10.4 8.2
2017-Jun-17 23:00S 43°36' E 172°42'0 0.0 080 / 61026.6 10.2 8.2
2017-Jun-17 22:00S 43°36' E 172°42'0 0.0 080 / 71026.8 10.1 8.2
2017-Jun-17 21:00S 43°36' E 172°42'0 0.0 080 / 81027.0 10.1 8.2
2017-Jun-17 20:00S 43°36' E 172°42'0 0.0 080 / 71027.2 9.9 8.2
2017-Jun-17 19:00S 43°36' E 172°42'0 0.0 070 / 91027.3 9.8 8.2
2017-Jun-17 18:00S 43°36' E 172°42'0 0.0 070 / 81027.4 9.8 8.2
2017-Jun-17 17:00S 43°36' E 172°42'0 0.0 080 / 91027.8 10.0 8.2
2017-Jun-17 16:00S 43°36' E 172°42'0 0.0 070 / 81028.3 9.9 8.2
2017-Jun-17 15:00S 43°36' E 172°42'0 0.0 080 / 71028.8 10.0 8.2
2017-Jun-17 14:00S 43°36' E 172°42'0 0.0 080 / 61029.1 9.4 8.2
2017-Jun-17 13:00S 43°36' E 172°42'0 0.0 080 / 61029.4 8.9 8.2
2017-Jun-17 12:00S 43°36' E 172°42'0 0.0 050 / 21029.6 7.6 8.2
2017-Jun-17 11:00S 43°36' E 172°42'0 0.0 240 1029.8 6.7 8.2
2017-Jun-17 10:00S 43°36' E 172°42'0 0.0 300 1030.0 6.7 8.2
2017-Jun-17 09:00S 43°36' E 172°42'0 0.0 310 / 11030.0 6.9 8.2
2017-Jun-17 08:00S 43°36' E 172°42'0 0.0 090 / 11029.8 6.7 8.2
2017-Jun-17 07:00S 43°36' E 172°42'0 0.0 200 1029.4 6.9 8.2
2017-Jun-17 06:00S 43°36' E 172°42'0 0.0 310 / 11028.9 7.6 8.2
2017-Jun-17 05:00S 43°36' E 172°42'0 0.0 290 / 11028.6 8.5 8.2
2017-Jun-17 04:00S 43°36' E 172°42'0 0.0 320 1028.5 9.7 8.2
2017-Jun-17 03:00S 43°36' E 172°42'0 0.0 230 1028.4 9.9 8.2
2017-Jun-17 02:00S 43°36' E 172°42'0 0.0 190 1028.6 9.0 8.2
2017-Jun-17 01:00S 43°36' E 172°42'0 0.0 120 1029.1 7.9 8.2
2017-Jun-17 00:00S 43°36' E 172°42'0 0.0 130 1029.5 7.3 8.2
2017-Jun-16 23:00S 43°36' E 172°42'0 0.0 090 1029.8 1.0 6.6 8.2
2017-Jun-16 22:00S 43°36' E 172°42'0 0.0 070 1029.5 5.2 8.2
2017-Jun-16 21:00S 43°36' E 172°42'0 0.0 350 1029.2 4.4 8.2
2017-Jun-16 20:00S 43°36' E 172°42'0 0.0 070 1028.7 4.5 8.2
2017-Jun-16 19:00S 43°36' E 172°42'0 0.0 030 1028.3 4.5 8.2
2017-Jun-16 18:00S 43°36' E 172°42'0 0.0 310 1027.9 4.6 8.2
2017-Jun-16 17:00S 43°36' E 172°42'0 0.0 040 1027.7 4.7 8.2
2017-Jun-16 16:00S 43°36' E 172°42'0 0.0 080 / 11027.6 5.0 8.2
2017-Jun-16 15:00S 43°36' E 172°42'0 0.0 110 1027.6 5.1 8.2
2017-Jun-16 14:00S 43°36' E 172°42'0 0.0 100 1027.3 5.4 8.2
2017-Jun-16 13:00S 43°36' E 172°42'0 0.0 050 / 11027.3 5.4 8.2
2017-Jun-16 12:00S 43°36' E 172°42'0 0.0 280 1027.1 5.7 8.2
2017-Jun-16 11:00S 43°36' E 172°42'0 0.0 280 1026.9 5.9 8.2
2017-Jun-16 10:00S 43°36' E 172°42'0 0.0 180 1026.6 6.5 8.2
2017-Jun-16 09:00S 43°36' E 172°42'0 0.0 300 / 11026.3 6.9 8.2
2017-Jun-16 08:00S 43°36' E 172°42'0 0.0 020 1026.1 7.8 8.2
2017-Jun-16 07:00S 43°36' E 172°42'0 0.0 300 1025.6 8.0 8.2
2017-Jun-16 06:00S 43°36' E 172°42'0 0.0 330 / 11025.0 7.9 8.2
2017-Jun-16 05:00S 43°36' E 172°42'0 0.0 020 / 11024.1 8.7 8.2
2017-Jun-16 04:00S 43°36' E 172°42'0 0.0 1023.5 9.7 8.2
2017-Jun-16 03:00S 43°36' E 172°42'0 0.0 060 / 41023.0 10.5 8.2
2017-Jun-16 02:00S 43°36' E 172°42'0 0.0 120 / 11023.0 9.7 8.2
2017-Jun-16 01:00S 43°36' E 172°42'0 0.0 130 / 21023.4 9.3 8.2
2017-Jun-16 00:00S 43°36' E 172°42'0 0.0 170 / 11024.0 9.0 8.2
2017-Jun-15 23:00S 43°36' E 172°42'0 0.0 140 / 11024.1 8.5 8.2
2017-Jun-15 22:00S 43°36' E 172°42'0 0.0 120 1023.8 8.2 8.2
2017-Jun-15 21:00S 43°36' E 172°42'0 0.0 200 1023.1 8.1 8.2
2017-Jun-15 20:00S 43°36' E 172°42'0 0.0 050 1022.7 8.4 8.2
2017-Jun-15 19:00S 43°36' E 172°42'0 0.0 010 / 11022.4 8.4 8.2
2017-Jun-15 18:00S 43°36' E 172°42'0 0.0 300 / 31022.1 8.6 8.2
2017-Jun-15 17:00S 43°36' E 172°42'0 0.0 270 / 71021.9 8.5 8.2
2017-Jun-15 16:00S 43°36' E 172°42'0 0.0 260 / 51021.9 9.1 8.2
2017-Jun-15 15:00S 43°36' E 172°42'0 0.0 250 / 81021.6 10.1 8.2
2017-Jun-15 14:00S 43°36' E 172°42'0 0.0 260 / 51020.9 9.9 8.2
2017-Jun-15 13:00S 43°36' E 172°42'0 0.0 250 / 81020.2 10.4 8.2
2017-Jun-15 12:00S 43°36' E 172°42'0 0.0 250 / 141018.5 10.8 8.2
2017-Jun-15 11:00S 43°36' E 172°42'0 0.0 260 / 141016.9 9.8 8.2
2017-Jun-15 10:00S 43°36' E 172°42'0 0.0 300 / 41015.7 6.6 8.2
2017-Jun-15 09:00S 43°36' E 172°42'0 0.0 100 / 21014.8 6.2 8.2
2017-Jun-15 08:00S 43°36' E 172°42'0 0.0 320 / 21014.5 6.1 8.2
2017-Jun-15 07:00S 43°36' E 172°42'0 0.0 320 / 11014.1 6.2 8.2
2017-Jun-15 06:00S 43°36' E 172°42'0 0.0 090 / 11013.9 7.0 8.2
2017-Jun-15 05:00S 43°36' E 172°42'0 0.0 350 / 11013.9 8.1 8.2
2017-Jun-15 04:00S 43°36' E 172°42'   090 / 41014.0 9.1 8.2

Dump ship's entire track history